ASP686 CYVR-KLAX
Flight info
| Callsign | ASP686 |
|---|---|
| Flight time | N/A |
| Altitude | 39000 |
| Route | SEA J5 SUMMA DCT 4230N12050W DCT FRA J7 REBRG IRNMN2 |
| Aircraft | C750/M-SBDE3FGHRWXY/S |
Departure
| Time | 2026-04-30 21:56 |
|---|---|
| Airport | Vancouver International Airport (CYVR) |
Arrival
| Time | N/A |
|---|---|
| Airport | Los Angeles International Airport (KLAX) |
| Time | Latitude | Longitude | Altitude | Speed | Heading |
|---|---|---|---|---|---|
| 2026-04-30 21:37 | 49.18214 | -123.17131 | 22 ft | 0 kts | 185° |
| 2026-04-30 21:51 | 49.18212 | -123.17132 | 20 ft | 1 kts | 191° |
| 2026-04-30 21:52 | 49.18208 | -123.17150 | 21 ft | 3 kts | 279° |
| 2026-04-30 21:52 | 49.18229 | -123.17180 | 20 ft | 6 kts | 319° |
| 2026-04-30 21:52 | 49.18270 | -123.17203 | 21 ft | 8 kts | 346° |
| 2026-04-30 21:52 | 49.18328 | -123.17253 | 20 ft | 12 kts | 323° |
| 2026-04-30 21:53 | 49.18406 | -123.17342 | 20 ft | 16 kts | 323° |
| 2026-04-30 21:53 | 49.18438 | -123.17507 | 20 ft | 18 kts | 280° |
| 2026-04-30 21:53 | 49.18460 | -123.17697 | 21 ft | 11 kts | 280° |
| 2026-04-30 21:53 | 49.18504 | -123.17726 | 20 ft | 8 kts | 43° |
| 2026-04-30 21:54 | 49.18559 | -123.17641 | 21 ft | 12 kts | 46° |
| 2026-04-30 21:54 | 49.18616 | -123.17556 | 22 ft | 12 kts | 54° |
| 2026-04-30 21:54 | 49.18619 | -123.17394 | 20 ft | 21 kts | 99° |
| 2026-04-30 21:54 | 49.18592 | -123.17136 | 19 ft | 28 kts | 99° |
| 2026-04-30 21:55 | 49.18556 | -123.16822 | 18 ft | 30 kts | 102° |
| 2026-04-30 21:55 | 49.18520 | -123.16514 | 18 ft | 28 kts | 100° |
| 2026-04-30 21:55 | 49.18493 | -123.16305 | 20 ft | 12 kts | 113° |
| 2026-04-30 21:55 | 49.18489 | -123.16236 | 22 ft | 2 kts | 336° |
| 2026-04-30 21:56 | 49.18506 | -123.16398 | 20 ft | 55 kts | 279° |
| 2026-04-30 21:56 | 49.18633 | -123.17515 | 27 ft | 143 kts | 279° |
| 2026-04-30 21:56 | 49.18824 | -123.19125 | 308 ft | 169 kts | 280° |
| 2026-04-30 21:56 | 49.19052 | -123.21036 | 771 ft | 193 kts | 281° |
| 2026-04-30 21:57 | 49.19307 | -123.23082 | 1633 ft | 193 kts | 281° |
| 2026-04-30 21:57 | 49.19453 | -123.25064 | 2665 ft | 185 kts | 269° |
| 2026-04-30 21:57 | 49.19188 | -123.26968 | 3521 ft | 184 kts | 247° |
| 2026-04-30 21:57 | 49.18513 | -123.28640 | 4303 ft | 186 kts | 227° |
| 2026-04-30 21:58 | 49.17560 | -123.29957 | 5147 ft | 186 kts | 214° |
| 2026-04-30 21:58 | 49.16434 | -123.31006 | 5800 ft | 193 kts | 206° |
| 2026-04-30 21:58 | 49.15244 | -123.31783 | 5747 ft | 184 kts | 199° |
| 2026-04-30 21:58 | 49.13891 | -123.32315 | 5049 ft | 221 kts | 190° |
| 2026-04-30 21:59 | 49.12246 | -123.32584 | 5028 ft | 253 kts | 184° |
| 2026-04-30 21:59 | 49.10501 | -123.32666 | 5036 ft | 258 kts | 180° |
| 2026-04-30 21:59 | 49.08716 | -123.32526 | 5011 ft | 257 kts | 172° |
| 2026-04-30 22:00 | 49.05365 | -123.30388 | 6001 ft | 259 kts | 157° |
| 2026-04-30 22:00 | 49.01991 | -123.28271 | 8028 ft | 266 kts | 159° |
| 2026-04-30 22:00 | 49.00261 | -123.27178 | 9056 ft | 270 kts | 158° |
| 2026-04-30 22:01 | 48.98505 | -123.26054 | 9983 ft | 276 kts | 158° |
| 2026-04-30 22:01 | 48.96682 | -123.24896 | 10473 ft | 295 kts | 158° |
| 2026-04-30 22:01 | 48.94720 | -123.23658 | 10615 ft | 322 kts | 158° |
| 2026-04-30 22:01 | 48.92567 | -123.22296 | 10857 ft | 342 kts | 158° |